< < Back
Terminal Aerodrome Forecast


Current Version              Previous Versions:   1  2  3  4  5  6  7  8  9  

Terminal Aerodrome Forecast

776
FTUS44 KOHX 231700
TAFCSV
TAF
KCSV 231724Z 2318/2418 36008KT P6SM FEW250
     FM240100 00000KT P6SM SKC
     FM241400 16007KT P6SM FEW035 SCT250=

Latest METAR

236
SAUS70 KWBC 232000 RRE
MTRCSV
METAR KCSV 231953Z AUTO 03008KT 10SM CLR 18/M04 A3000 RMK AO2 SLP150
T01831039


USA.gov is the U.S. government's official web portal to all federal, state and local government web resources and services.